Time;durP1;ratioP1;P1;durP2;ratioP2;P2;SDS_P1;SDS_P2;PMS_P1;PMS_P2;Temp;Humidity;BMP_temperature;BMP_pressure;BME280_temperature;BME280_humidity;BME280_pressure;Samples;Min_cycle;Max_cycle;Signal;HPM_P1;HPM_P2
2021/04/28 00:02:52;;;;;;;7.33;5.07;;;;;;;12.36;35.01;96920.91;8398407;28;20507;-70
2021/04/28 00:06:54;;;;;;;9.33;5.27;;;;;;;12.32;35.63;96917.69;8397760;28;20214;-70
2021/04/28 00:10:58;;;;;;;8.67;5.00;;;;;;;12.32;35.88;96912.47;8396104;28;20199;-70
2021/04/28 00:15:00;;;;;;;9.67;5.30;;;;;;;12.17;36.29;96902.31;8397909;28;20555;-70
2021/04/28 00:19:02;;;;;;;12.33;5.30;;;;;;;12.15;36.49;96907.59;8396998;28;20199;-71
2021/04/28 00:23:04;;;;;;;9.30;5.40;;;;;;;12.17;36.65;96903.16;8397124;28;20203;-70
2021/04/28 00:27:16;;;;;;;9.83;5.70;;;;;;;12.14;36.57;96908.53;8398040;28;20203;-70
2021/04/28 00:31:30;;;;;;;7.97;5.60;;;;;;;12.11;36.72;96891.41;8397326;28;20242;-70
2021/04/28 00:35:33;;;;;;;9.13;5.87;;;;;;;12.09;36.68;96898.47;8397120;28;20310;-70
2021/04/28 00:39:34;;;;;;;10.70;5.90;;;;;;;12.20;35.95;96899.50;8396649;28;20195;-70
2021/04/28 00:43:38;;;;;;;11.53;6.07;;;;;;;12.23;35.92;96894.09;8396909;28;20672;-70
2021/04/28 00:47:40;;;;;;;8.23;5.40;;;;;;;12.12;35.89;96887.88;8396585;28;20225;-70
2021/04/28 00:51:42;;;;;;;8.83;5.67;;;;;;;12.08;36.18;96891.59;8388229;28;20203;-70
2021/04/28 00:55:44;;;;;;;9.00;5.57;;;;;;;12.02;36.39;96892.03;8396369;28;20259;-70
2021/04/28 00:59:47;;;;;;;10.23;6.07;;;;;;;11.90;36.48;96885.06;8396207;28;20662;-71
2021/04/28 01:03:49;;;;;;;8.93;5.77;;;;;;;11.85;36.79;96887.94;8395328;28;20206;-70
2021/04/28 01:07:51;;;;;;;9.47;5.50;;;;;;;11.80;37.06;96882.22;8395412;28;20210;-70
2021/04/28 01:11:54;;;;;;;8.77;5.60;;;;;;;11.78;36.86;96881.47;8395322;28;20206;-70
2021/04/28 01:15:57;;;;;;;8.00;5.40;;;;;;;11.70;37.10;96878.56;8395189;28;20234;-70
2021/04/28 01:19:58;;;;;;;7.73;5.70;;;;;;;11.72;37.20;96882.72;8394801;28;20231;-71
2021/04/28 01:24:01;;;;;;;9.60;5.60;;;;;;;11.53;37.58;96866.72;8394136;28;20198;-71
2021/04/28 01:28:05;;;;;;;7.87;5.60;;;;;;;11.54;37.34;96879.59;8395143;28;20206;-70
2021/04/28 01:32:08;;;;;;;9.53;5.63;;;;;;;11.38;37.62;96880.69;8394622;28;20231;-70
2021/04/28 01:36:14;;;;;;;7.93;5.23;;;;;;;11.22;38.31;96883.44;8394450;28;20334;-71
2021/04/28 01:40:19;;;;;;;6.97;5.07;;;;;;;11.24;38.21;96886.75;8394709;28;20222;-70
2021/04/28 01:44:22;;;;;;;11.20;5.13;;;;;;;11.25;38.11;96878.03;8393993;28;20195;-70
2021/04/28 01:48:24;;;;;;;8.77;5.93;;;;;;;11.35;38.16;96876.53;8394133;28;20207;-71
2021/04/28 01:52:26;;;;;;;6.27;5.30;;;;;;;11.23;38.14;96878.16;8394344;28;20298;-70
2021/04/28 01:56:29;;;;;;;12.87;7.17;;;;;;;11.03;38.45;96879.44;8393922;28;20227;-70
2021/04/28 02:00:31;;;;;;;9.03;6.33;;;;;;;11.08;38.36;96882.56;8393953;28;20206;-71
2021/04/28 02:04:33;;;;;;;10.00;6.53;;;;;;;11.01;38.22;96878.69;8393918;28;20278;-70
2021/04/28 02:08:35;;;;;;;9.20;5.77;;;;;;;10.87;38.66;96874.41;8393979;28;20636;-71
2021/04/28 02:12:39;;;;;;;8.37;5.70;;;;;;;10.99;38.39;96866.78;8393728;28;20206;-71
2021/04/28 02:16:41;;;;;;;11.00;5.67;;;;;;;10.92;38.74;96879.28;8393861;28;20694;-71
2021/04/28 02:20:45;;;;;;;11.03;5.73;;;;;;;10.92;38.26;96880.09;8393849;28;20195;-70
2021/04/28 02:24:47;;;;;;;8.83;6.13;;;;;;;10.66;38.75;96868.78;8393684;28;20533;-71
2021/04/28 02:28:50;;;;;;;8.30;5.80;;;;;;;10.76;38.99;96861.28;8393571;28;20211;-71
2021/04/28 02:32:53;;;;;;;8.50;5.40;;;;;;;10.77;38.80;96870.69;8395309;28;20226;-71
2021/04/28 02:36:57;;;;;;;9.70;5.93;;;;;;;10.83;38.91;96862.53;8399339;28;20663;-70
2021/04/28 02:41:01;;;;;;;8.40;5.37;;;;;;;10.70;38.95;96856.47;8399045;28;20286;-71
2021/04/28 02:45:07;;;;;;;8.30;5.60;;;;;;;10.72;38.91;96852.06;8399396;28;20203;-71
2021/04/28 02:49:09;;;;;;;9.37;5.17;;;;;;;10.66;38.98;96848.09;8399064;28;20203;-71
2021/04/28 02:53:13;;;;;;;11.47;5.80;;;;;;;10.67;38.95;96848.91;8398839;28;20211;-71
2021/04/28 02:57:16;;;;;;;12.43;5.67;;;;;;;10.52;39.48;96850.69;8398759;28;20242;-72
2021/04/28 03:01:19;;;;;;;7.33;5.57;;;;;;;10.59;39.47;96849.38;8398153;28;20199;-70
2021/04/28 03:05:23;;;;;;;8.80;5.50;;;;;;;10.52;39.51;96848.09;8398752;28;20574;-71
2021/04/28 03:09:25;;;;;;;8.00;5.77;;;;;;;10.44;39.19;96845.97;8398241;28;20210;-71
2021/04/28 03:13:26;;;;;;;7.83;5.77;;;;;;;10.36;39.61;96848.22;8398478;28;20258;-71
2021/04/28 03:17:29;;;;;;;8.30;5.90;;;;;;;10.32;39.64;96849.34;8397806;28;20227;-71
2021/04/28 03:21:33;;;;;;;10.83;5.77;;;;;;;10.30;39.50;96852.00;8397902;28;20211;-71
2021/04/28 03:25:35;;;;;;;9.30;5.87;;;;;;;10.35;39.83;96846.53;8397938;28;20211;-70
2021/04/28 03:29:37;;;;;;;11.37;6.00;;;;;;;10.33;39.96;96851.81;8398484;28;20655;-71
2021/04/28 03:33:40;;;;;;;6.33;5.57;;;;;;;10.38;40.09;96848.94;8397244;28;20235;-70
2021/04/28 03:37:43;;;;;;;10.17;6.30;;;;;;;10.37;40.13;96849.88;8397290;28;20291;-71
2021/04/28 03:41:45;;;;;;;8.27;5.73;;;;;;;10.38;39.94;96854.13;8397409;28;20633;-71
2021/04/28 03:45:47;;;;;;;11.30;6.30;;;;;;;10.33;40.04;96861.34;8397067;28;20211;-71
2021/04/28 03:49:49;;;;;;;8.07;5.50;;;;;;;10.24;40.21;96854.09;8397289;28;20210;-71
2021/04/28 03:53:51;;;;;;;9.43;5.90;;;;;;;10.21;40.42;96847.38;8397638;28;20203;-71
2021/04/28 03:57:53;;;;;;;10.47;5.80;;;;;;;10.15;40.22;96850.31;8396879;28;20648;-71
2021/04/28 04:01:55;;;;;;;10.03;6.23;;;;;;;10.17;40.52;96851.06;8396891;28;20199;-71
2021/04/28 04:06:00;;;;;;;9.17;6.70;;;;;;;10.18;40.54;96850.97;8396804;28;20622;-71
2021/04/28 04:10:02;;;;;;;8.97;6.10;;;;;;;10.14;40.61;96853.81;8396227;28;20269;-70
2021/04/28 04:14:04;;;;;;;10.43;6.40;;;;;;;10.12;40.86;96853.91;8396799;28;20635;-70
2021/04/28 04:18:05;;;;;;;9.90;6.23;;;;;;;10.12;40.89;96860.84;8396786;28;20229;-70
2021/04/28 04:22:08;;;;;;;8.70;6.40;;;;;;;10.15;40.84;96864.09;8396349;28;20206;-70
2021/04/28 04:26:10;;;;;;;19.87;7.17;;;;;;;10.10;40.97;96867.88;8395550;28;20302;-71
2021/04/28 04:30:12;;;;;;;14.47;6.83;;;;;;;10.14;40.93;96866.75;8395807;28;20256;-71
2021/04/28 04:34:14;;;;;;;9.40;7.03;;;;;;;10.11;41.19;96869.50;8395918;28;20203;-70
2021/04/28 04:38:17;;;;;;;9.93;6.97;;;;;;;10.14;41.48;96869.34;8387884;28;20230;-70
2021/04/28 04:42:19;;;;;;;15.50;7.00;;;;;;;10.17;41.40;96874.34;8396125;28;20203;-70
2021/04/28 04:46:21;;;;;;;13.80;6.60;;;;;;;10.25;41.71;96869.53;8395281;28;20669;-71
2021/04/28 04:50:23;;;;;;;11.27;6.60;;;;;;;10.29;41.75;96870.19;8395398;28;20203;-70
2021/04/28 04:54:26;;;;;;;8.90;6.40;;;;;;;10.36;41.49;96877.50;8394973;28;20199;-70
2021/04/28 04:58:28;;;;;;;17.83;6.90;;;;;;;10.51;41.08;96880.94;8394668;28;20231;-70
2021/04/28 05:02:30;;;;;;;13.83;6.60;;;;;;;10.64;40.61;96882.75;8395464;28;20195;-70
2021/04/28 05:06:32;;;;;;;13.13;6.47;;;;;;;10.67;40.37;96882.56;8395482;28;20221;-70
2021/04/28 05:10:35;;;;;;;12.47;7.23;;;;;;;10.25;40.65;96884.22;8394274;28;20206;-70
2021/04/28 05:14:37;;;;;;;10.60;7.13;;;;;;;10.37;40.59;96884.34;8395724;28;20215;-70
2021/04/28 05:18:38;;;;;;;11.73;7.03;;;;;;;10.22;41.12;96881.81;8395810;28;20533;-70
2021/04/28 05:22:41;;;;;;;12.80;7.87;;;;;;;10.27;40.87;96877.22;8395466;28;20203;-70
2021/04/28 05:26:47;;;;;;;11.13;7.60;;;;;;;10.11;41.63;96878.13;8395321;28;20191;-69
2021/04/28 05:30:49;;;;;;;10.80;8.07;;;;;;;10.05;41.48;96881.09;8395016;28;20231;-70
2021/04/28 05:34:52;;;;;;;10.90;7.90;;;;;;;9.97;41.56;96876.34;8395446;28;20584;-70
2021/04/28 05:38:58;;;;;;;12.17;8.03;;;;;;;10.09;41.81;96879.13;8396067;28;20222;-70
2021/04/28 05:43:01;;;;;;;10.30;8.30;;;;;;;10.08;41.77;96877.47;8395433;28;20191;-70
2021/04/28 05:47:06;;;;;;;16.97;11.43;;;;;;;10.56;40.94;96880.63;8396346;28;20191;-70
2021/04/28 05:51:08;;;;;;;12.93;8.40;;;;;;;10.55;41.23;96882.41;8395125;28;20207;-70
2021/04/28 05:55:10;;;;;;;11.63;8.00;;;;;;;10.27;41.45;96882.38;8395496;28;20210;-70
2021/04/28 05:59:13;;;;;;;11.53;7.60;;;;;;;10.78;41.21;96881.91;8393143;28;20278;-71
2021/04/28 06:03:15;;;;;;;11.30;7.80;;;;;;;11.53;40.45;96871.91;8391529;28;20260;-72
2021/04/28 06:07:17;;;;;;;12.47;8.07;;;;;;;11.71;39.35;96880.25;8397891;28;20210;-71
2021/04/28 06:11:19;;;;;;;11.80;8.13;;;;;;;12.04;38.84;96878.94;8420314;28;20238;-71
2021/04/28 06:15:22;;;;;;;12.30;8.03;;;;;;;12.13;38.53;96880.94;8403811;28;20683;-71
2021/04/28 06:19:24;;;;;;;10.93;8.23;;;;;;;12.16;37.79;96882.47;8404145;28;20222;-71
2021/04/28 06:23:27;;;;;;;10.57;8.13;;;;;;;12.23;37.88;96878.53;8403615;28;20211;-72
2021/04/28 06:27:31;;;;;;;17.03;8.43;;;;;;;12.52;37.56;96879.13;8377119;28;20335;-70
2021/04/28 06:31:34;;;;;;;12.13;8.10;;;;;;;13.09;37.21;96878.53;8370304;28;20227;-71
2021/04/28 06:35:37;;;;;;;13.20;8.33;;;;;;;12.19;37.82;96877.91;8369955;28;20703;-70
2021/04/28 06:39:39;;;;;;;14.67;9.10;;;;;;;12.67;37.92;96878.03;8370200;28;20254;-70
2021/04/28 06:43:41;;;;;;;16.90;9.00;;;;;;;12.79;37.31;96884.13;8370723;28;20658;-70
2021/04/28 06:47:50;;;;;;;11.93;8.37;;;;;;;13.20;36.42;96884.75;8397843;28;20214;-70
2021/04/28 06:51:52;;;;;;;15.97;8.53;;;;;;;12.88;37.44;96885.28;8380801;28;20309;-70
2021/04/28 06:55:55;;;;;;;10.93;8.23;;;;;;;13.46;35.92;96875.06;8369240;28;20666;-70
2021/04/28 06:59:58;;;;;;;13.80;8.27;;;;;;;13.45;36.29;96869.03;8369696;28;20204;-71
2021/04/28 07:04:01;;;;;;;11.20;8.43;;;;;;;13.68;35.58;96869.13;8368755;28;20204;-71
2021/04/28 07:08:09;;;;;;;11.77;8.27;;;;;;;13.96;35.54;96873.09;8369250;28;20200;-70
2021/04/28 07:12:11;;;;;;;13.40;7.90;;;;;;;14.67;34.48;96878.13;8396997;28;20250;-70
2021/04/28 07:16:13;;;;;;;12.50;8.10;;;;;;;15.32;33.26;96873.81;8402741;28;20223;-70
2021/04/28 07:20:16;;;;;;;11.47;8.07;;;;;;;15.43;33.62;96871.16;8385401;28;20252;-70
2021/04/28 07:24:19;;;;;;;9.83;7.67;;;;;;;15.86;32.63;96879.91;8401954;28;20203;-70
2021/04/28 07:28:24;;;;;;;10.03;5.77;;;;;;;17.45;33.10;96884.59;8402476;28;20203;-70
2021/04/28 07:32:26;;;;;;;16.37;5.63;;;;;;;18.33;31.82;96882.69;8401188;28;20407;-70
2021/04/28 07:36:30;;;;;;;14.23;6.33;;;;;;;18.22;29.20;96880.25;8400843;28;20219;-71
2021/04/28 07:40:34;;;;;;;9.10;5.70;;;;;;;18.75;31.27;96877.84;8399927;28;20194;-70
2021/04/28 07:44:36;;;;;;;12.07;5.83;;;;;;;19.20;30.61;96884.09;8399854;28;20206;-71
2021/04/28 07:48:38;;;;;;;14.30;6.23;;;;;;;19.43;30.28;96870.53;8399987;28;20218;-69
2021/04/28 07:52:43;;;;;;;11.13;6.80;;;;;;;19.67;29.34;96873.38;8401008;28;20301;-69
2021/04/28 07:56:47;;;;;;;11.13;6.63;;;;;;;19.88;28.79;96872.28;8399897;28;20241;-69
2021/04/28 08:00:49;;;;;;;11.27;6.10;;;;;;;19.54;29.59;96868.50;8399644;28;20204;-69
2021/04/28 08:04:51;;;;;;;11.80;5.90;;;;;;;19.94;28.76;96866.41;8401285;28;20657;-70
2021/04/28 08:08:54;;;;;;;10.77;6.60;;;;;;;19.70;27.94;96867.00;8400873;28;20207;-71
2021/04/28 08:12:56;;;;;;;10.73;6.30;;;;;;;19.27;28.79;96865.97;8402073;28;20535;-70
2021/04/28 08:16:58;;;;;;;12.13;7.27;;;;;;;19.41;28.35;96865.44;8401924;28;20252;-70
2021/04/28 08:21:00;;;;;;;10.33;6.00;;;;;;;19.92;27.84;96861.28;8400593;28;20252;-71
2021/04/28 08:25:05;;;;;;;8.53;5.53;;;;;;;20.19;28.27;96864.75;8400962;28;20199;-70
2021/04/28 08:29:07;;;;;;;13.67;6.40;;;;;;;20.87;27.63;96861.31;8400742;28;20206;-70
2021/04/28 08:33:09;;;;;;;15.73;5.90;;;;;;;20.64;29.01;96876.03;8399838;28;20235;-71
2021/04/28 08:37:11;;;;;;;13.90;5.90;;;;;;;20.95;27.31;96862.34;8399291;28;20641;-71
2021/04/28 08:41:14;;;;;;;13.57;5.87;;;;;;;20.91;27.01;96867.09;8400934;28;20199;-71
2021/04/28 08:45:17;;;;;;;14.57;6.07;;;;;;;20.79;27.42;96860.47;8400226;28;20282;-71
2021/04/28 08:49:19;;;;;;;7.07;5.30;;;;;;;21.27;26.71;96853.69;8400905;28;20290;-72
2021/04/28 08:53:22;;;;;;;14.53;5.50;;;;;;;21.55;26.23;96853.41;8400256;28;20542;-70
2021/04/28 08:57:25;;;;;;;12.33;6.00;;;;;;;20.96;26.46;96850.81;8399321;28;20686;-70
2021/04/28 09:01:28;;;;;;;11.90;5.97;;;;;;;21.91;25.26;96855.69;8399344;28;20200;-70
2021/04/28 09:05:30;;;;;;;7.23;4.90;;;;;;;22.29;25.59;96848.91;8399479;28;20210;-71
2021/04/28 09:09:32;;;;;;;11.63;5.70;;;;;;;22.25;24.55;96837.06;8399030;28;20662;-70
2021/04/28 09:13:35;;;;;;;9.63;6.00;;;;;;;22.03;24.49;96838.56;8399477;28;20293;-70
2021/04/28 09:17:50;;;;;;;15.43;5.57;;;;;;;21.97;26.39;96834.78;8398282;28;20276;-70
2021/04/28 09:21:59;;;;;;;10.80;6.50;;;;;;;21.18;24.90;96830.97;8399024;28;20287;-71
2021/04/28 09:26:03;;;;;;;15.50;6.17;;;;;;;22.15;25.36;96831.13;8398321;28;20196;-70
2021/04/28 09:30:08;;;;;;;11.00;5.70;;;;;;;22.11;23.86;96829.81;8398675;28;20211;-70
2021/04/28 09:34:10;;;;;;;10.33;5.77;;;;;;;22.20;23.86;96823.50;8398745;28;20306;-71
2021/04/28 09:38:12;;;;;;;18.27;6.50;;;;;;;21.74;23.60;96823.28;8398013;28;20232;-71
2021/04/28 09:42:16;;;;;;;11.17;6.43;;;;;;;21.86;22.87;96819.31;8398471;28;20207;-70
2021/04/28 09:46:19;;;;;;;8.77;6.73;;;;;;;22.77;22.46;96810.16;8398316;28;20211;-71
2021/04/28 09:50:27;;;;;;;13.80;6.77;;;;;;;21.97;21.96;96813.69;8398715;28;20207;-72
2021/04/28 09:54:31;;;;;;;12.20;7.37;;;;;;;22.81;21.70;96806.16;8398930;28;20529;-71
2021/04/28 09:58:49;;;;;;;14.37;6.93;;;;;;;21.34;22.44;96804.63;8397255;28;20231;-70
2021/04/28 10:02:54;;;;;;;13.47;6.90;;;;;;;22.37;21.51;96793.50;8396762;28;20222;-71
2021/04/28 10:06:56;;;;;;;10.07;6.50;;;;;;;22.11;20.77;96801.63;8397534;28;20214;-71
2021/04/28 10:11:00;;;;;;;10.17;6.70;;;;;;;21.96;20.76;96795.41;8397727;28;20207;-71
2021/04/28 10:15:01;;;;;;;20.43;7.40;;;;;;;22.32;19.73;96784.47;8398696;28;20223;-70
2021/04/28 10:19:04;;;;;;;9.73;6.80;;;;;;;23.07;19.38;96797.13;8397857;28;20236;-70
2021/04/28 10:23:08;;;;;;;11.37;6.27;;;;;;;23.65;19.46;96788.78;8396613;28;20206;-62
2021/04/28 10:27:11;;;;;;;9.30;6.07;;;;;;;23.15;18.99;96790.97;8396434;28;20208;-62
2021/04/28 10:31:13;;;;;;;14.00;6.50;;;;;;;22.71;18.97;96788.91;8397709;28;20231;-62
2021/04/28 10:35:19;;;;;;;9.33;6.60;;;;;;;23.90;18.21;96779.63;8396500;28;20212;-62
2021/04/28 10:39:22;;;;;;;9.93;6.63;;;;;;;23.64;18.63;96774.72;8397588;28;20665;-62
2021/04/28 10:43:34;;;;;;;13.03;7.10;;;;;;;22.94;19.13;96773.09;8396213;28;20201;-62
2021/04/28 10:47:42;;;;;;;13.37;7.00;;;;;;;23.33;18.94;96766.91;8396370;28;20494;-62
2021/04/28 10:51:49;;;;;;;14.10;7.20;;;;;;;22.59;18.75;96768.19;8397372;28;20623;-62
2021/04/28 10:55:55;;;;;;;9.10;6.23;;;;;;;23.35;18.24;96754.34;8401153;28;20197;-62
2021/04/28 10:59:58;;;;;;;11.93;6.90;;;;;;;;;;8401149;28;20209;-63
2021/04/28 11:04:00;;;;;;;13.97;7.70;;;;;;;23.14;18.56;96742.63;8401847;28;20195;-64
2021/04/28 11:08:10;;;;;;;10.20;7.53;;;;;;;23.27;18.17;96741.22;8402405;28;20215;-65
2021/04/28 11:12:12;;;;;;;12.03;6.93;;;;;;;24.39;18.89;96749.97;8401988;28;20196;-70
2021/04/28 11:16:37;;;;;;;10.50;6.80;;;;;;;24.76;17.39;96742.06;8400812;28;20233;-70
2021/04/28 11:20:39;;;;;;;13.40;8.30;;;;;;;23.54;17.20;96745.91;8402264;28;20571;-70
2021/04/28 11:25:00;;;;;;;13.87;7.83;;;;;;;24.14;17.10;96745.97;8401454;28;20209;-70
2021/04/28 11:29:04;;;;;;;11.60;7.70;;;;;;;24.06;17.59;96738.97;8401124;28;20191;-70
2021/04/28 11:33:31;;;;;;;10.50;7.70;;;;;;;24.13;17.15;96739.88;8400687;28;20227;-70
2021/04/28 11:37:33;;;;;;;13.97;8.40;;;;;;;23.89;16.87;96740.97;8400658;28;20241;-69
2021/04/28 11:41:39;;;;;;;9.13;7.20;;;;;;;24.70;16.74;96738.34;8400546;28;20292;-70
2021/04/28 11:45:40;;;;;;;11.77;7.87;;;;;;;24.19;17.60;96739.13;8401674;28;20205;-71
2021/04/28 11:49:49;;;;;;;10.47;8.70;;;;;;;23.45;16.94;96733.78;8399975;28;20195;-70
2021/04/28 11:53:53;;;;;;;12.57;6.00;;;;;;;24.48;21.48;96726.06;8393477;28;20214;-70
2021/04/28 11:57:56;;;;;;;11.27;6.97;;;;;;;24.42;17.71;96724.97;8367165;28;20675;-63
2021/04/28 12:02:00;;;;;;;9.43;6.77;;;;;;;24.50;18.62;96731.97;8367126;28;20207;-63
2021/04/28 12:06:41;;;;;;;9.30;6.97;;;;;;;24.65;17.00;96726.69;8366268;28;20652;-63
2021/04/28 12:10:50;;;;;;;10.27;7.20;;;;;;;24.41;20.22;96726.00;8352733;28;20208;-63
2021/04/28 12:14:54;;;;;;;12.10;6.13;;;;;;;24.95;18.17;96720.28;8366762;28;20226;-63
2021/04/28 12:19:07;;;;;;;7.00;6.27;;;;;;;25.52;17.66;96713.25;8366089;28;20230;-62
2021/04/28 12:23:09;;;;;;;12.67;7.63;;;;;;;25.43;17.01;96710.94;8367446;28;20268;-62
2021/04/28 12:27:19;;;;;;;9.37;6.97;;;;;;;25.01;17.25;96691.41;8367775;28;20674;-76
2021/04/28 12:31:46;;;;;;;15.33;7.70;;;;;;;24.45;17.10;96699.97;8367512;28;20243;-73
2021/04/28 12:35:50;;;;;;;8.93;6.80;;;;;;;25.28;17.31;96692.47;8368286;28;20531;-72
2021/04/28 12:39:55;;;;;;;13.80;7.93;;;;;;;25.07;17.32;96682.69;8368075;28;20226;-71
2021/04/28 12:43:57;;;;;;;13.63;7.77;;;;;;;24.35;18.90;96687.03;8367614;28;20527;-72
2021/04/28 12:48:10;;;;;;;12.87;7.73;;;;;;;24.88;18.18;96682.31;8366037;28;20214;-72
2021/04/28 12:52:15;;;;;;;10.07;6.80;;;;;;;24.47;18.59;96692.69;8367186;28;20195;-72
2021/04/28 12:56:17;;;;;;;11.77;7.40;;;;;;;24.14;18.54;96688.63;8366051;28;20214;-72
2021/04/28 13:00:20;;;;;;;10.70;6.60;;;;;;;24.30;18.44;96684.13;8366356;28;20227;-72
2021/04/28 13:04:24;;;;;;;6.03;5.27;;;;;;;24.91;17.46;96679.28;8365888;28;20206;-72
2021/04/28 13:08:31;;;;;;;9.57;5.40;;;;;;;25.06;17.04;96681.88;8365281;28;20222;-73
2021/04/28 13:12:34;;;;;;;14.33;6.00;;;;;;;24.54;17.11;96670.59;8365813;28;20200;-72
2021/04/28 13:16:38;;;;;;;6.20;4.80;;;;;;;24.53;17.83;96657.56;8364328;28;20260;-71
2021/04/28 13:20:41;;;;;;;8.37;4.90;;;;;;;24.71;17.92;96646.53;8364362;28;20259;-72
2021/04/28 13:24:47;;;;;;;7.80;4.87;;;;;;;24.95;17.42;96650.63;8363933;28;20215;-71
2021/04/28 13:28:54;;;;;;;7.53;5.20;;;;;;;25.01;17.52;96649.84;8363871;28;20214;-72
2021/04/28 13:32:56;;;;;;;8.00;4.40;;;;;;;25.13;17.88;96643.03;8365158;28;20245;-72
2021/04/28 13:36:59;;;;;;;10.70;5.73;;;;;;;25.10;17.59;96643.41;8365138;28;20214;-71
2021/04/28 13:41:09;;;;;;;6.97;5.07;;;;;;;24.80;18.83;96636.63;8364240;28;20207;-72
2021/04/28 13:45:13;;;;;;;11.70;6.17;;;;;;;24.51;18.58;96635.72;8366789;28;20591;-72
2021/04/28 13:49:15;;;;;;;10.63;5.83;;;;;;;23.99;19.25;96642.91;8364097;28;20445;-61
2021/04/28 13:53:18;;;;;;;10.27;5.67;;;;;;;23.97;18.80;96631.66;8364267;28;20458;-61
2021/04/28 13:57:20;;;;;;;11.40;5.90;;;;;;;24.35;18.56;96632.31;8365165;28;20659;-61
2021/04/28 14:01:23;;;;;;;12.27;5.67;;;;;;;24.26;18.70;96629.97;8365461;28;20210;-62
2021/04/28 14:05:25;;;;;;;14.23;6.00;;;;;;;23.76;19.22;96627.09;8364815;28;20544;-62
2021/04/28 14:09:27;;;;;;;9.97;5.57;;;;;;;23.69;19.40;96624.38;8363970;28;20208;-62
2021/04/28 14:13:29;;;;;;;11.13;5.47;;;;;;;23.77;19.37;96629.56;8362955;28;20211;-62
2021/04/28 14:17:31;;;;;;;8.17;5.43;;;;;;;23.11;20.26;96633.91;8362821;28;20237;-64
2021/04/28 14:21:34;;;;;;;9.30;4.93;;;;;;;23.57;19.92;96618.75;8362886;28;20207;-62
2021/04/28 14:25:37;;;;;;;8.93;5.13;;;;;;;23.02;19.86;96612.03;8363551;28;20558;-63
2021/04/28 14:29:39;;;;;;;9.77;4.40;;;;;;;23.04;21.46;96607.41;8366386;28;20268;-62
2021/04/28 14:34:01;;;;;;;11.07;5.03;;;;;;;22.64;21.93;96606.72;8371983;28;20585;-63
2021/04/28 14:38:03;;;;;;;5.60;4.13;;;;;;;22.49;21.55;96601.41;8370225;28;20225;-73
2021/04/28 14:42:06;;;;;;;10.23;5.03;;;;;;;22.51;21.05;96596.75;8369559;28;20558;-74
2021/04/28 14:46:08;;;;;;;7.87;3.93;;;;;;;22.82;21.76;96598.50;8369867;28;20206;-75
2021/04/28 14:50:11;;;;;;;6.33;4.17;;;;;;;22.76;21.47;96597.38;8370565;28;20209;-75
2021/04/28 14:54:13;;;;;;;9.60;4.93;;;;;;;22.52;22.87;96579.13;8370190;28;20201;-74
2021/04/28 14:58:16;;;;;;;9.53;4.60;;;;;;;22.53;21.05;96584.22;8369302;28;20251;-75
2021/04/28 15:02:18;;;;;;;10.30;4.60;;;;;;;22.29;23.76;96574.66;8368748;28;20330;-75
2021/04/28 15:06:20;;;;;;;10.13;4.73;;;;;;;22.50;21.91;96581.09;8368936;28;20623;-75
2021/04/28 15:10:22;;;;;;;5.80;4.37;;;;;;;22.74;21.70;96561.63;8368813;28;20218;-75
2021/04/28 15:14:25;;;;;;;6.47;4.70;;;;;;;22.74;21.48;96564.25;8369086;28;20230;-73
2021/04/28 15:18:27;;;;;;;13.43;4.83;;;;;;;22.59;22.14;96567.66;8366281;28;20227;-74
2021/04/28 15:22:29;;;;;;;7.93;4.47;;;;;;;22.90;20.98;96573.84;8402976;28;20200;-75
2021/04/28 15:26:30;;;;;;;11.47;4.57;;;;;;;23.11;22.07;96566.06;8402673;28;20200;-75
2021/04/28 15:30:33;;;;;;;12.57;4.17;;;;;;;22.99;22.68;96556.94;8401234;28;20238;-76
2021/04/28 15:34:36;;;;;;;12.17;4.77;;;;;;;22.54;22.07;96556.00;8400362;28;20204;-75
2021/04/28 15:38:37;;;;;;;8.70;4.40;;;;;;;22.43;23.27;96557.28;8401229;28;20230;-76
2021/04/28 15:42:40;;;;;;;7.80;4.50;;;;;;;22.29;22.16;96555.38;8399239;28;20203;-76
2021/04/28 15:46:43;;;;;;;5.43;3.83;;;;;;;22.19;23.09;96548.50;8401450;28;20203;-75
2021/04/28 15:50:45;;;;;;;10.60;4.10;;;;;;;22.18;24.42;96546.03;8400892;28;20211;-73
2021/04/28 15:54:47;;;;;;;8.80;4.60;;;;;;;22.61;21.43;96541.13;8398786;28;20416;-72
2021/04/28 15:58:49;;;;;;;7.13;4.10;;;;;;;21.59;22.09;96533.34;8400624;28;20226;-70
2021/04/28 16:02:53;;;;;;;5.90;3.20;;;;;;;21.68;21.49;96529.69;8401762;28;20223;-70
2021/04/28 16:06:55;;;;;;;9.57;3.40;;;;;;;21.61;21.85;96534.84;8400498;28;20211;-70
2021/04/28 16:10:57;;;;;;;6.23;3.50;;;;;;;21.38;22.10;96526.84;8400289;28;20229;-71
2021/04/28 16:14:59;;;;;;;9.37;3.90;;;;;;;21.27;22.42;96519.34;8400690;28;20223;-71
2021/04/28 16:19:02;;;;;;;7.50;4.20;;;;;;;21.21;22.12;96526.09;8400265;28;20290;-71
2021/04/28 16:23:04;;;;;;;4.60;3.40;;;;;;;21.22;21.77;96519.81;8400375;28;20533;-71
2021/04/28 16:27:06;;;;;;;8.73;3.97;;;;;;;21.15;21.88;96521.50;8399105;28;20203;-70
2021/04/28 16:31:08;;;;;;;8.30;3.67;;;;;;;21.16;21.90;96523.13;8399427;28;20314;-69
2021/04/28 16:35:12;;;;;;;6.47;3.77;;;;;;;21.17;22.01;96511.63;8399198;28;20297;-71
2021/04/28 16:39:15;;;;;;;8.17;4.57;;;;;;;21.03;22.12;96510.50;8398283;28;20234;-69
2021/04/28 16:43:17;;;;;;;9.17;4.27;;;;;;;21.11;22.03;96517.56;8398447;28;20551;-71
2021/04/28 16:47:19;;;;;;;7.13;4.27;;;;;;;20.90;21.94;96518.09;8399669;28;20541;-70
2021/04/28 16:51:21;;;;;;;10.53;4.30;;;;;;;20.83;22.42;96510.06;8399239;28;20207;-70
2021/04/28 16:55:23;;;;;;;10.37;3.73;;;;;;;20.91;21.95;96508.44;8397944;28;20218;-68
2021/04/28 16:59:26;;;;;;;8.43;4.23;;;;;;;20.79;22.36;96497.41;8397375;28;20251;-69
2021/04/28 17:03:28;;;;;;;12.27;4.67;;;;;;;20.62;22.95;96494.81;8398762;28;20562;-69
2021/04/28 17:07:31;;;;;;;6.83;3.63;;;;;;;20.74;22.83;96487.41;8398154;28;20225;-70
2021/04/28 17:11:33;;;;;;;7.00;4.10;;;;;;;20.62;23.03;96479.06;8397662;28;20207;-70
2021/04/28 17:15:38;;;;;;;8.40;4.53;;;;;;;20.60;23.81;96478.41;8397423;28;20231;-71
2021/04/28 17:19:42;;;;;;;8.27;4.53;;;;;;;20.58;23.15;96480.34;8396586;28;20227;-71
2021/04/28 17:23:45;;;;;;;9.80;4.47;;;;;;;20.65;23.36;96483.16;8396187;28;20214;-70
2021/04/28 17:27:46;;;;;;;7.03;5.17;;;;;;;20.62;23.47;96491.34;8395581;28;20203;-70
2021/04/28 17:32:00;;;;;;;9.40;4.97;;;;;;;20.36;24.16;96481.84;8396968;28;20239;-70
2021/04/28 17:36:04;;;;;;;14.97;5.23;;;;;;;20.24;25.07;96486.63;8396068;28;20199;-70
2021/04/28 17:40:08;;;;;;;11.27;4.90;;;;;;;20.19;25.60;96488.91;8396395;28;20222;-70
2021/04/28 17:44:10;;;;;;;9.33;4.17;;;;;;;20.29;25.45;96479.03;8396591;28;20207;-70
2021/04/28 17:48:12;;;;;;;6.77;3.47;;;;;;;20.23;25.38;96479.69;8396384;28;20661;-70
2021/04/28 17:52:14;;;;;;;6.23;3.97;;;;;;;20.14;25.72;96485.13;8397476;28;20280;-70
2021/04/28 17:56:17;;;;;;;8.63;4.03;;;;;;;20.04;26.10;96491.34;8397145;28;20239;-70
2021/04/28 18:00:20;;;;;;;8.17;4.40;;;;;;;19.94;26.29;96484.63;8395553;28;20238;-70
2021/04/28 18:04:22;;;;;;;6.07;4.20;;;;;;;19.79;26.59;96492.31;8395107;28;20282;-69
2021/04/28 18:08:24;;;;;;;8.57;4.60;;;;;;;19.56;27.10;96485.03;8396129;28;20207;-69
2021/04/28 18:12:27;;;;;;;9.60;5.30;;;;;;;19.69;27.02;96485.38;8394824;28;20207;-70
2021/04/28 18:16:29;;;;;;;11.47;5.60;;;;;;;19.52;27.24;96481.88;8396150;28;20226;-70
2021/04/28 18:20:31;;;;;;;7.07;4.87;;;;;;;19.60;27.34;96490.78;8395806;28;20226;-70
2021/04/28 18:24:33;;;;;;;8.47;5.33;;;;;;;19.46;27.57;96489.59;8396704;28;20199;-70
2021/04/28 18:28:37;;;;;;;10.00;5.20;;;;;;;19.49;27.71;96499.75;8396310;28;20518;-70
2021/04/28 18:32:38;;;;;;;13.30;6.40;;;;;;;19.35;27.60;96498.56;8395103;28;20257;-69
2021/04/28 18:36:41;;;;;;;7.67;5.53;;;;;;;19.24;27.89;96493.59;8395976;28;20650;-69
2021/04/28 18:40:43;;;;;;;10.13;6.03;;;;;;;19.20;28.00;96494.91;8395420;28;20242;-69
2021/04/28 18:44:46;;;;;;;8.87;5.53;;;;;;;19.04;28.40;96490.38;8396160;28;20195;-69
2021/04/28 18:48:48;;;;;;;10.63;5.70;;;;;;;19.00;28.58;96494.31;8395444;28;20230;-69
2021/04/28 18:52:49;;;;;;;13.40;6.73;;;;;;;18.87;28.93;96498.19;8395379;28;20207;-69
2021/04/28 18:56:51;;;;;;;8.23;4.80;;;;;;;18.76;29.25;96501.06;8396624;28;20203;-69
2021/04/28 19:00:54;;;;;;;9.07;5.03;;;;;;;18.50;29.85;96506.28;8394755;28;20245;-69